SLCG weather

Charagua Airport
Cordillera, Santa Cruz Department, Bolivia

Public forecast

Using degrees Celsius for public forecast. Weather courtesy of forecast.io.

METAR (pilot weather report)

Closest report is Camiri Airport, 23.3 nm (43.2 km) SW. Retrieved 2019/05/26 17:00 UTC (55 minutes ago):

SLCA 261700Z 00000KT 9999 NSC 23/13 Q1010

TAF (pilot weather forecast)

Closest forecast is El Trompillo Airport, 118.5 nm (219.5 km) N. Retrieved 2019/05/26 12:12 UTC (6 hours ago):

TAF SLET 261110Z 2612/2712 35015G25KT 9999 SCT020 TX29/2620Z TN20/2711Z BECMG 2623/2701 35008KT NSC PROB40 TEMPO 2709/2712 SCT010